createdAt,value
2023-03-16T00:01:42.291Z,-0.87
2023-03-16T00:06:43.869Z,-0.83
2023-03-16T00:11:45.470Z,-0.73
2023-03-16T00:16:47.138Z,-0.58
2023-03-16T00:21:50.210Z,-0.41
2023-03-16T00:26:54.915Z,-0.49
2023-03-16T00:31:56.541Z,-0.68
2023-03-16T00:36:59.074Z,-0.84
2023-03-16T00:42:00.620Z,-0.93
2023-03-16T00:47:03.143Z,-1.02
2023-03-16T00:52:07.067Z,-1.13
2023-03-16T00:57:12.023Z,-1.21
2023-03-16T01:02:16.667Z,-1.23
2023-03-16T01:07:18.413Z,-1.27
2023-03-16T01:12:20.201Z,-1.34
2023-03-16T01:17:25.325Z,-1.35
2023-03-16T01:22:35.518Z,-1.35
2023-03-16T01:27:37.925Z,-1.37
2023-03-16T01:32:40.421Z,-1.36
2023-03-16T01:37:42.920Z,-1.41
2023-03-16T01:43:02.486Z,-1.49
2023-03-16T01:48:07.950Z,-1.53
2023-03-16T01:53:11.698Z,-1.59
2023-03-16T01:58:14.646Z,-1.70
2023-03-16T02:03:18.823Z,-1.78
2023-03-16T02:08:32.124Z,-1.77
2023-03-16T02:13:36.715Z,-1.75
2023-03-16T02:18:39.441Z,-1.75
2023-03-16T02:23:43.569Z,-1.75
2023-03-16T02:29:23.304Z,-1.87
2023-03-16T02:34:27.874Z,-2.07
2023-03-16T02:39:29.866Z,-2.27
2023-03-16T02:44:36.933Z,-2.33
2023-03-16T02:49:45.348Z,-2.35
2023-03-16T02:54:47.037Z,-2.30
2023-03-16T02:59:48.788Z,-2.22
2023-03-16T03:04:54.430Z,-2.22
2023-03-16T03:09:58.397Z,-2.25
2023-03-16T03:15:00.149Z,-2.24
2023-03-16T03:20:13.751Z,-2.34
2023-03-16T03:25:18.350Z,-2.34
2023-03-16T03:30:22.605Z,-2.34
2023-03-16T03:35:24.292Z,-2.34
2023-03-16T03:40:26.487Z,-2.45
2023-03-16T03:45:33.056Z,-2.58
2023-03-16T03:50:34.733Z,-2.51
2023-03-16T03:56:10.071Z,-2.44
2023-03-16T04:01:12.763Z,-2.47
2023-03-16T04:06:17.635Z,-2.48
2023-03-16T04:11:23.736Z,-2.48
2023-03-16T04:16:27.030Z,-2.53
2023-03-16T04:21:30.070Z,-2.49
2023-03-16T04:26:32.694Z,-2.49
2023-03-16T04:31:34.402Z,-2.48
2023-03-16T04:36:37.013Z,-2.52
2023-03-16T04:41:38.632Z,-2.53
2023-03-16T04:46:49.193Z,-2.61
2023-03-16T04:51:52.326Z,-2.69
2023-03-16T04:56:55.626Z,-2.67
2023-03-16T05:02:12.253Z,-2.68
2023-03-16T05:07:14.174Z,-2.70
2023-03-16T05:12:19.983Z,-2.70
2023-03-16T05:17:24.551Z,-2.66
2023-03-16T05:22:26.600Z,-2.60
2023-03-16T05:27:48.704Z,-2.66
2023-03-16T05:32:57.940Z,-2.67
2023-03-16T05:38:00.346Z,-2.72
2023-03-16T05:43:04.461Z,-2.71
2023-03-16T05:48:09.477Z,-2.69
2023-03-16T05:53:17.558Z,-2.63
2023-03-16T05:58:19.258Z,-2.55
2023-03-16T06:03:23.679Z,-2.55
2023-03-16T06:08:27.375Z,-2.49
2023-03-16T06:13:32.781Z,-2.47
2023-03-16T06:18:34.760Z,-2.30
2023-03-16T06:23:36.702Z,-2.06
2023-03-16T06:28:41.484Z,-1.75
2023-03-16T06:33:43.212Z,-1.56
2023-03-16T06:38:44.975Z,-1.31
2023-03-16T06:43:59.656Z,-1.09
2023-03-16T06:49:02.217Z,-0.81
2023-03-16T06:54:04.333Z,-0.52
2023-03-16T06:59:07.745Z,-0.24
2023-03-16T07:04:12.701Z,-0.01
2023-03-16T07:09:15.655Z,0.19
2023-03-16T07:14:19.631Z,0.45
2023-03-16T07:19:23.740Z,0.64
2023-03-16T07:24:30.780Z,0.88
2023-03-16T07:29:32.712Z,1.12
2023-03-16T07:34:35.258Z,1.36
2023-03-16T07:39:38.319Z,1.49
2023-03-16T07:44:51.300Z,1.73
2023-03-16T07:49:53.513Z,1.96
2023-03-16T07:54:55.684Z,2.07
2023-03-16T07:59:58.472Z,2.35
2023-03-16T08:05:02.365Z,2.60
2023-03-16T08:10:04.572Z,2.91
2023-03-16T08:15:24.762Z,2.96
2023-03-16T08:20:36.085Z,2.96
2023-03-16T08:25:37.766Z,3.05
2023-03-16T08:30:48.428Z,3.22
2023-03-16T08:36:15.538Z,3.49
2023-03-16T08:41:22.037Z,3.72
2023-03-16T08:46:24.956Z,4.06
2023-03-16T08:51:32.568Z,4.41
2023-03-16T08:56:34.436Z,4.79
2023-03-16T09:01:36.009Z,5.15
2023-03-16T09:06:37.546Z,5.59
2023-03-16T09:11:39.382Z,5.99
2023-03-16T09:16:40.962Z,6.28
2023-03-16T09:21:42.564Z,6.41
2023-03-16T09:26:45.219Z,6.59
2023-03-16T09:31:47.936Z,6.56
2023-03-16T09:36:49.460Z,6.74
2023-03-16T09:42:16.737Z,6.83
2023-03-16T09:47:26.582Z,7.03
2023-03-16T09:52:40.031Z,7.21
2023-03-16T09:57:44.638Z,7.38
2023-03-16T10:02:55.096Z,7.43
2023-03-16T10:08:02.123Z,7.54
2023-03-16T10:13:13.162Z,7.77
2023-03-16T10:18:20.998Z,7.88
2023-03-16T10:23:27.000Z,7.95
2023-03-16T10:28:32.024Z,8.10
2023-03-16T10:33:36.626Z,8.25
2023-03-16T10:38:40.889Z,8.37
2023-03-16T10:43:42.910Z,8.65
2023-03-16T10:49:02.077Z,8.79
2023-03-16T10:54:16.162Z,9.02
2023-03-16T10:59:37.007Z,9.31
2023-03-16T11:04:38.565Z,9.65
2023-03-16T11:09:40.280Z,10.16
2023-03-16T11:14:45.374Z,10.63
2023-03-16T11:19:56.154Z,11.25
2023-03-16T11:25:00.908Z,11.68
2023-03-16T11:30:27.070Z,11.87
2023-03-16T11:35:59.807Z,12.01
2023-03-16T11:41:10.522Z,12.24
2023-03-16T11:46:53.480Z,12.35
2023-03-16T11:52:32.251Z,12.38
2023-03-16T11:57:39.723Z,12.26
2023-03-16T12:02:48.434Z,11.82
2023-03-16T12:08:20.283Z,11.56
2023-03-16T12:13:48.624Z,11.41
2023-03-16T12:19:00.786Z,11.25
2023-03-16T12:24:11.192Z,11.10
2023-03-16T12:29:37.872Z,11.16
2023-03-16T12:34:53.263Z,11.19
2023-03-16T12:40:24.580Z,11.34
2023-03-16T12:45:53.421Z,11.36
2023-03-16T12:50:58.655Z,11.40
2023-03-16T12:56:10.057Z,11.40
2023-03-16T13:01:13.274Z,11.40
2023-03-16T13:06:24.015Z,11.39
2023-03-16T13:11:27.215Z,11.48
2023-03-16T13:16:31.682Z,11.62
2023-03-16T13:21:41.117Z,11.64
2023-03-16T13:26:47.499Z,11.66
2023-03-16T13:31:50.371Z,11.77
2023-03-16T13:36:56.909Z,11.92
2023-03-16T13:42:25.241Z,12.05
2023-03-16T13:47:27.750Z,12.17
2023-03-16T13:52:35.284Z,12.21
2023-03-16T13:57:38.892Z,12.45
2023-03-16T14:02:45.116Z,12.72
2023-03-16T14:07:48.679Z,12.88
2023-03-16T14:12:58.693Z,13.03
2023-03-16T14:18:16.684Z,13.26
2023-03-16T14:23:22.357Z,13.42
2023-03-16T14:28:34.396Z,13.41
2023-03-16T14:33:40.033Z,13.68
2023-03-16T14:38:43.700Z,13.95
2023-03-16T14:43:51.829Z,14.17
2023-03-16T14:49:00.475Z,14.30
2023-03-16T14:54:02.734Z,14.19
2023-03-16T14:59:04.267Z,13.97
2023-03-16T15:04:07.358Z,13.86
2023-03-16T15:09:23.193Z,14.04
2023-03-16T15:14:43.344Z,14.08
2023-03-16T15:19:44.870Z,14.11
2023-03-16T15:24:46.360Z,14.04
2023-03-16T15:29:48.000Z,13.78
2023-03-16T15:34:49.835Z,13.58
2023-03-16T15:39:51.465Z,13.43
2023-03-16T15:44:53.049Z,13.35
2023-03-16T15:49:54.557Z,13.17
2023-03-16T15:54:57.483Z,13.00
2023-03-16T15:59:59.476Z,12.79
2023-03-16T16:05:01.069Z,12.67
2023-03-16T16:10:03.011Z,12.67
2023-03-16T16:15:20.180Z,12.62
2023-03-16T16:20:28.351Z,12.59
2023-03-16T16:25:37.903Z,12.46
2023-03-16T16:30:39.911Z,12.31
2023-03-16T16:35:41.892Z,12.16
2023-03-16T16:40:46.118Z,11.97
2023-03-16T16:45:48.862Z,11.77
2023-03-16T16:50:51.604Z,11.60
2023-03-16T16:55:54.117Z,11.44
2023-03-16T17:00:57.921Z,11.26
2023-03-16T17:05:59.608Z,11.08
2023-03-16T17:11:01.149Z,10.89
2023-03-16T17:16:02.740Z,10.73
2023-03-16T17:21:05.019Z,10.51
2023-03-16T17:26:16.019Z,10.29
2023-03-16T17:31:24.293Z,10.10
2023-03-16T17:36:26.306Z,9.83
2023-03-16T17:41:30.632Z,9.58
2023-03-16T17:46:34.024Z,9.36
2023-03-16T17:51:39.800Z,9.19
2023-03-16T17:56:51.665Z,8.98
2023-03-16T18:01:53.217Z,8.75
2023-03-16T18:06:55.414Z,8.59
2023-03-16T18:11:57.279Z,8.43
2023-03-16T18:16:58.968Z,8.25
2023-03-16T18:22:00.840Z,8.04
2023-03-16T18:27:02.399Z,7.89
2023-03-16T18:32:03.982Z,7.67
2023-03-16T18:37:10.865Z,7.55
2023-03-16T18:42:19.954Z,7.46
2023-03-16T18:47:26.845Z,7.37
2023-03-16T18:52:32.729Z,7.26
2023-03-16T18:57:34.239Z,7.17
2023-03-16T19:02:39.515Z,7.01
2023-03-16T19:07:44.115Z,7.01
2023-03-16T19:12:45.676Z,6.82
2023-03-16T19:17:49.927Z,6.61
2023-03-16T19:23:07.352Z,6.41
2023-03-16T19:28:22.636Z,6.37
2023-03-16T19:33:26.265Z,6.06
2023-03-16T19:38:27.799Z,5.80
2023-03-16T19:43:29.352Z,5.63
2023-03-16T19:48:33.223Z,5.49
2023-03-16T19:53:34.752Z,5.34
2023-03-16T19:58:41.556Z,5.20
2023-03-16T20:03:44.886Z,5.06
2023-03-16T20:08:47.757Z,4.90
2023-03-16T20:13:50.203Z,4.74
2023-03-16T20:18:54.675Z,4.62
2023-03-16T20:23:56.312Z,4.44
2023-03-16T20:28:59.808Z,4.32
2023-03-16T20:34:01.638Z,4.23
2023-03-16T20:39:03.498Z,4.11
2023-03-16T20:44:05.858Z,4.02
2023-03-16T20:49:22.369Z,3.93
2023-03-16T20:54:23.908Z,3.96
2023-03-16T20:59:27.339Z,4.00
2023-03-16T21:04:29.954Z,3.91
2023-03-16T21:09:33.249Z,3.84
2023-03-16T21:14:35.304Z,3.85
2023-03-16T21:19:36.803Z,3.82
2023-03-16T21:24:38.291Z,3.79
2023-03-16T21:29:39.920Z,3.74
2023-03-16T21:34:41.770Z,3.72
2023-03-16T21:39:45.023Z,3.66
2023-03-16T21:44:47.156Z,3.59
2023-03-16T21:49:49.627Z,3.56
2023-03-16T21:54:52.517Z,3.47
2023-03-16T21:59:54.063Z,3.36
2023-03-16T22:04:56.794Z,3.18
2023-03-16T22:09:58.298Z,3.07
2023-03-16T22:14:59.844Z,2.99
2023-03-16T22:20:01.451Z,3.00
2023-03-16T22:25:17.008Z,3.03
2023-03-16T22:30:22.255Z,3.01
2023-03-16T22:35:29.582Z,3.02
2023-03-16T22:40:34.241Z,3.06
2023-03-16T22:45:35.833Z,3.06
2023-03-16T22:50:37.387Z,3.03
2023-03-16T22:55:40.269Z,3.11
2023-03-16T23:00:42.793Z,3.18
2023-03-16T23:05:44.567Z,3.24
2023-03-16T23:10:46.136Z,3.28
2023-03-16T23:15:48.783Z,3.32
2023-03-16T23:20:51.295Z,3.29
2023-03-16T23:25:52.832Z,3.20
2023-03-16T23:30:56.632Z,3.07
2023-03-16T23:35:58.180Z,3.00
2023-03-16T23:41:00.659Z,2.98
2023-03-16T23:46:02.953Z,2.94
2023-03-16T23:51:05.625Z,2.87
2023-03-16T23:56:10.686Z,2.76
